Time;durP1;ratioP1;P1;durP2;ratioP2;P2;SDS_P1;SDS_P2;PMS_P1;PMS_P2;Temp;Humidity;BMP_temperature;BMP_pressure;BME280_temperature;BME280_humidity;BME280_pressure;Samples;Min_cycle;Max_cycle;Signal;HPM_P1;HPM_P2
2021/03/03 00:01:59;;;;;;;;;;;;;;;17.04;38.04;101339.56;4422524;32;20020;-52
2021/03/03 00:04:25;;;;;;;;;;;;;;;17.06;37.96;101337.88;4426407;32;19954;-53
2021/03/03 00:06:51;;;;;;;;;;;;;;;17.04;38.06;101342.19;4423650;32;20309;-48
2021/03/03 00:09:17;;;;;;;;;;;;;;;16.98;38.25;101339.28;4425592;32;19958;-50
2021/03/03 00:11:43;;;;;;;;;;;;;;;16.96;38.40;101335.66;4423378;32;20012;-51
2021/03/03 00:14:09;;;;;;;;;;;;;;;16.94;38.22;101329.44;4424970;32;19997;-51
2021/03/03 00:16:35;;;;;;;;;;;;;;;17.03;38.11;101326.31;4422930;32;19999;-54
2021/03/03 00:19:00;;;;;;;;;;;;;;;16.93;38.31;101328.56;4419725;32;19961;-55
2021/03/03 00:21:26;;;;;;;;;;;;;;;17.00;38.11;101322.72;4426517;32;19957;-53
2021/03/03 00:23:52;;;;;;;;;;;;;;;17.02;38.06;101325.44;4423002;32;19950;-49
2021/03/03 00:26:18;;;;;;;;;;;;;;;16.98;38.06;101324.38;4419756;32;19954;-54
2021/03/03 00:28:46;;;;;;;;;;;;;;;17.04;37.93;101329.03;4421407;32;19950;-53
2021/03/03 00:31:12;;;;;;;;;;;;;;;16.94;38.19;101317.19;4418098;32;19980;-48
2021/03/03 00:33:38;;;;;;;;;;;;;;;16.98;38.26;101318.22;4420457;32;19966;-53
2021/03/03 00:36:04;;;;;;;;;;;;;;;16.92;38.22;101321.50;4422465;32;19946;-51
2021/03/03 00:38:30;;;;;;;;;;;;;;;16.98;38.03;101319.13;4426162;32;19953;-53
2021/03/03 00:40:56;;;;;;;;;;;;;;;16.97;38.05;101322.56;4423410;32;19997;-51
2021/03/03 00:43:21;;;;;;;;;;;;;;;16.94;38.18;101326.81;4422993;32;20000;-51
2021/03/03 00:45:47;;;;;;;;;;;;;;;17.00;38.00;101327.12;4424794;32;19953;-50
2021/03/03 00:48:13;;;;;;;;;;;;;;;17.05;37.84;101330.81;4425458;32;20387;-52
2021/03/03 00:50:39;;;;;;;;;;;;;;;17.04;37.87;101322.84;4427185;32;19993;-48
2021/03/03 00:53:05;;;;;;;;;;;;;;;16.98;37.99;101318.22;4425992;32;19968;-52
2021/03/03 00:55:31;;;;;;;;;;;;;;;16.95;38.09;101324.25;4425653;32;20152;-47
2021/03/03 00:57:57;;;;;;;;;;;;;;;16.96;38.01;101333.03;4425956;32;19958;-50
2021/03/03 01:00:23;;;;;;;;;;;;;;;16.92;38.29;101325.84;4425927;32;20033;-56
2021/03/03 01:02:48;;;;;;;;;;;;;;;16.92;38.11;101333.75;4424800;32;20007;-49
2021/03/03 01:05:14;;;;;;;;;;;;;;;16.99;37.90;101335.81;4430728;32;20001;-54
2021/03/03 01:07:40;;;;;;;;;;;;;;;16.97;37.94;101329.56;4428752;32;19994;-52
2021/03/03 01:10:06;;;;;;;;;;;;;;;16.96;37.99;101330.41;4428748;32;19985;-54
2021/03/03 01:12:32;;;;;;;;;;;;;;;16.90;38.11;101322.25;4429504;32;20340;-52
2021/03/03 01:14:58;;;;;;;;;;;;;;;16.90;38.15;101315.25;4423886;32;19982;-52
2021/03/03 01:17:24;;;;;;;;;;;;;;;16.86;38.16;101322.16;4410841;32;19954;-51
2021/03/03 01:19:50;;;;;;;;;;;;;;;16.92;38.03;101325.84;4416110;32;20300;-52
2021/03/03 01:22:16;;;;;;;;;;;;;;;16.89;38.11;101323.97;4414448;32;19961;-50
2021/03/03 01:24:41;;;;;;;;;;;;;;;16.84;38.14;101325.53;4415207;32;19967;-51
2021/03/03 01:27:07;;;;;;;;;;;;;;;16.88;38.05;101326.56;4421508;32;20031;-49
2021/03/03 01:29:33;;;;;;;;;;;;;;;16.89;38.03;101320.47;4411936;32;19988;-53
2021/03/03 01:31:59;;;;;;;;;;;;;;;16.86;38.11;101315.97;4412580;32;19992;-52
2021/03/03 01:34:25;;;;;;;;;;;;;;;16.94;37.96;101311.03;4405263;32;19950;-50
2021/03/03 01:36:51;;;;;;;;;;;;;;;16.90;38.03;101314.38;4404753;32;19958;-49
2021/03/03 01:39:17;;;;;;;;;;;;;;;16.91;37.93;101314.41;4406308;32;19962;-51
2021/03/03 01:41:43;;;;;;;;;;;;;;;16.89;37.92;101307.31;4411824;32;20260;-53
2021/03/03 01:44:09;;;;;;;;;;;;;;;16.86;38.02;101318.59;4415852;32;19954;-48
2021/03/03 01:46:34;;;;;;;;;;;;;;;16.87;37.97;101317.75;4416958;32;19974;-49
2021/03/03 01:49:00;;;;;;;;;;;;;;;16.76;38.24;101314.69;4417074;32;20031;-52
2021/03/03 01:51:26;;;;;;;;;;;;;;;16.80;38.06;101306.09;4416636;32;19972;-52
2021/03/03 01:53:52;;;;;;;;;;;;;;;16.88;37.98;101308.16;4411307;32;20351;-51
2021/03/03 01:56:18;;;;;;;;;;;;;;;16.85;38.02;101306.28;4412687;32;19975;-50
2021/03/03 01:58:44;;;;;;;;;;;;;;;16.79;38.12;101301.66;4414891;32;19958;-51
2021/03/03 02:01:10;;;;;;;;;;;;;;;16.70;38.23;101299.53;4410565;32;20374;-55
2021/03/03 02:03:36;;;;;;;;;;;;;;;16.79;38.03;101298.13;4420880;32;19957;-48
2021/03/03 02:06:02;;;;;;;;;;;;;;;16.85;37.96;101296.66;4410543;32;19950;-51
2021/03/03 02:08:27;;;;;;;;;;;;;;;16.78;38.12;101294.59;4426886;32;21330;-50
2021/03/03 02:10:53;;;;;;;;;;;;;;;16.73;38.18;101293.53;4428719;32;20023;-52
2021/03/03 02:13:19;;;;;;;;;;;;;;;16.74;38.09;101292.69;4431338;32;20026;-52
2021/03/03 02:15:45;;;;;;;;;;;;;;;16.75;38.13;101288.31;4430925;32;19983;-53
2021/03/03 02:18:11;;;;;;;;;;;;;;;16.72;38.13;101283.81;4430619;32;19957;-51
2021/03/03 02:20:37;;;;;;;;;;;;;;;16.70;38.19;101290.75;4428487;32;19954;-52
2021/03/03 02:23:03;;;;;;;;;;;;;;;16.74;38.04;101290.06;4429722;32;20353;-47
2021/03/03 02:25:29;;;;;;;;;;;;;;;16.76;38.04;101285.75;4429217;32;20014;-49
2021/03/03 02:27:55;;;;;;;;;;;;;;;16.70;38.19;101286.41;4431141;32;20072;-51
2021/03/03 02:30:21;;;;;;;;;;;;;;;16.68;38.17;101284.53;4428143;32;19954;-50
2021/03/03 02:32:47;;;;;;;;;;;;;;;16.68;38.12;101281.91;4431559;32;19998;-53
2021/03/03 02:35:13;;;;;;;;;;;;;;;16.71;38.12;101277.66;4429592;32;20142;-50
2021/03/03 02:37:39;;;;;;;;;;;;;;;16.64;38.26;101270.34;4427822;32;19958;-51
2021/03/03 02:40:05;;;;;;;;;;;;;;;16.58;38.37;101270.97;4430944;32;19972;-53
2021/03/03 02:42:31;;;;;;;;;;;;;;;16.67;38.14;101269.59;4427777;32;20357;-51
2021/03/03 02:44:57;;;;;;;;;;;;;;;16.71;38.06;101267.16;4431945;32;19976;-54
2021/03/03 02:47:23;;;;;;;;;;;;;;;16.74;38.00;101263.75;4426204;32;20044;-50
2021/03/03 02:49:49;;;;;;;;;;;;;;;16.68;38.07;101260.84;4431245;32;19991;-49
2021/03/03 02:52:14;;;;;;;;;;;;;;;16.70;38.11;101256.56;4415951;32;19954;-52
2021/03/03 02:54:40;;;;;;;;;;;;;;;16.64;38.18;101258.94;4429818;32;19993;-54
2021/03/03 02:57:06;;;;;;;;;;;;;;;16.62;38.29;101250.09;4426956;32;19989;-52
2021/03/03 02:59:32;;;;;;;;;;;;;;;16.53;38.38;101256.75;4430622;32;19953;-52
2021/03/03 03:01:58;;;;;;;;;;;;;;;16.58;38.23;101265.72;4430883;32;19984;-54
2021/03/03 03:04:24;;;;;;;;;;;;;;;16.63;38.27;101265.03;4430690;32;19979;-50
2021/03/03 03:06:50;;;;;;;;;;;;;;;16.65;38.09;101260.75;4427278;32;20028;-51
2021/03/03 03:09:16;;;;;;;;;;;;;;;16.70;37.99;101261.81;4431327;32;19951;-53
2021/03/03 03:11:42;;;;;;;;;;;;;;;16.68;38.11;101258.22;4429175;32;19942;-51
2021/03/03 03:14:08;;;;;;;;;;;;;;;16.64;38.13;101249.31;4430002;32;19960;-51
2021/03/03 03:16:34;;;;;;;;;;;;;;;16.57;38.21;101253.41;4430055;32;19964;-50
2021/03/03 03:19:00;;;;;;;;;;;;;;;16.55;38.33;101252.44;4430568;32;19981;-53
2021/03/03 03:21:26;;;;;;;;;;;;;;;16.57;38.24;101253.41;4429109;32;20013;-52
2021/03/03 03:23:51;;;;;;;;;;;;;;;16.57;38.20;101258.66;4431139;32;19992;-50
2021/03/03 03:26:17;;;;;;;;;;;;;;;16.67;38.07;101265.22;4429134;32;19974;-52
2021/03/03 03:28:43;;;;;;;;;;;;;;;16.67;37.93;101265.22;4430772;32;20327;-49
2021/03/03 03:31:09;;;;;;;;;;;;;;;16.69;37.89;101266.19;4425230;32;19988;-51
2021/03/03 03:33:35;;;;;;;;;;;;;;;16.69;37.88;101265.28;4431290;32;19946;-52
2021/03/03 03:36:01;;;;;;;;;;;;;;;16.60;38.07;101267.50;4430781;32;19942;-51
2021/03/03 03:38:27;;;;;;;;;;;;;;;16.63;38.02;101262.41;4430634;32;20020;-53
2021/03/03 03:40:53;;;;;;;;;;;;;;;16.54;38.20;101263.81;4430421;32;20304;-52
2021/03/03 03:43:19;;;;;;;;;;;;;;;16.60;38.12;101262.25;4425766;32;19956;-54
2021/03/03 03:45:45;;;;;;;;;;;;;;;16.56;38.19;101261.25;4430267;32;19958;-53
2021/03/03 03:48:11;;;;;;;;;;;;;;;16.57;38.08;101263.94;4429425;32;19977;-50
2021/03/03 03:50:37;;;;;;;;;;;;;;;16.49;38.26;101265.34;4425997;32;19978;-51
2021/03/03 03:53:02;;;;;;;;;;;;;;;16.55;38.09;101260.34;4428803;32;19974;-54
2021/03/03 03:55:28;;;;;;;;;;;;;;;16.50;38.24;101266.22;4429603;32;20222;-52
2021/03/03 03:57:54;;;;;;;;;;;;;;;16.53;38.20;101262.00;4428464;32;19950;-50
2021/03/03 04:00:20;;;;;;;;;;;;;;;16.55;38.13;101264.72;4415604;32;20021;-48
2021/03/03 04:02:46;;;;;;;;;;;;;;;16.63;37.98;101267.66;4424746;32;19957;-52
2021/03/03 04:05:12;;;;;;;;;;;;;;;16.57;38.08;101263.94;4429495;32;20435;-53
2021/03/03 04:07:38;;;;;;;;;;;;;;;16.55;38.09;101254.19;4428855;32;19999;-50
2021/03/03 04:10:04;;;;;;;;;;;;;;;16.52;38.14;101254.03;4427151;32;20334;-50
2021/03/03 04:12:30;;;;;;;;;;;;;;;16.49;38.23;101260.09;4428364;32;19995;-51
2021/03/03 04:14:55;;;;;;;;;;;;;;;16.48;38.22;101266.16;4430857;32;19953;-49
2021/03/03 04:17:21;;;;;;;;;;;;;;;16.55;38.06;101275.25;4427879;32;20346;-49
2021/03/03 04:19:47;;;;;;;;;;;;;;;16.53;38.15;101269.91;4429025;32;19984;-52
2021/03/03 04:22:13;;;;;;;;;;;;;;;16.44;38.30;101274.75;4430380;32;19961;-55
2021/03/03 04:24:39;;;;;;;;;;;;;;;16.42;38.33;101285.22;4428530;32;19986;-51
2021/03/03 04:27:05;;;;;;;;;;;;;;;16.42;38.32;101286.94;4430166;32;20317;-52
2021/03/03 04:29:31;;;;;;;;;;;;;;;16.38;38.42;101292.91;4433462;32;19954;-54
2021/03/03 04:31:57;;;;;;;;;;;;;;;16.42;38.36;101279.06;4429950;32;20393;-52
2021/03/03 04:34:23;;;;;;;;;;;;;;;16.36;38.52;101279.69;4428460;32;20025;-51
2021/03/03 04:36:48;;;;;;;;;;;;;;;16.37;38.49;101275.34;4433682;32;19991;-48
2021/03/03 04:39:14;;;;;;;;;;;;;;;16.22;38.72;101276.44;4429581;32;20259;-53
2021/03/03 04:41:40;;;;;;;;;;;;;;;16.30;38.60;101275.06;4429645;32;19969;-48
2021/03/03 04:44:06;;;;;;;;;;;;;;;16.30;38.59;101279.44;4432140;32;19997;-51
2021/03/03 04:46:32;;;;;;;;;;;;;;;16.28;38.64;101279.34;4432638;32;19949;-51
2021/03/03 04:48:58;;;;;;;;;;;;;;;16.35;38.47;101288.41;4431278;32;19957;-52
2021/03/03 04:51:24;;;;;;;;;;;;;;;16.42;38.35;101279.06;4432512;32;19946;-47
2021/03/03 04:53:50;;;;;;;;;;;;;;;16.41;38.36;101269.38;4428704;32;20041;-55
2021/03/03 04:56:16;;;;;;;;;;;;;;;16.46;38.25;101265.19;4432068;32;19995;-50
2021/03/03 04:58:41;;;;;;;;;;;;;;;16.54;38.07;101263.81;4425604;32;19990;-48
2021/03/03 05:01:07;;;;;;;;;;;;;;;16.47;38.19;101268.75;4432244;32;19970;-55
2021/03/03 05:03:33;;;;;;;;;;;;;;;16.48;38.19;101268.78;4429767;32;20330;-50
2021/03/03 05:05:59;;;;;;;;;;;;;;;16.51;38.12;101260.13;4433457;32;19961;-50
2021/03/03 05:08:25;;;;;;;;;;;;;;;16.55;38.02;101265.59;4428932;32;19954;-51
2021/03/03 05:10:51;;;;;;;;;;;;;;;16.50;38.11;101267.16;4432188;32;20524;-53
2021/03/03 05:13:17;;;;;;;;;;;;;;;16.49;38.11;101270.63;4431587;32;19969;-52
2021/03/03 05:15:42;;;;;;;;;;;;;;;16.46;38.25;101275.72;4430712;32;19994;-52
2021/03/03 05:18:08;;;;;;;;;;;;;;;16.44;38.32;101272.13;4427502;32;19954;-52
2021/03/03 05:20:34;;;;;;;;;;;;;;;16.42;38.28;101273.78;4432215;32;19962;-51
2021/03/03 05:23:00;;;;;;;;;;;;;;;16.40;38.34;101264.94;4430427;32;20414;-49
2021/03/03 05:25:26;;;;;;;;;;;;;;;16.51;38.07;101261.06;4432285;32;20622;-48
2021/03/03 05:27:53;;;;;;;;;;;;;;;16.49;38.10;101254.84;4431317;32;20047;-53
2021/03/03 05:30:19;;;;;;;;;;;;;;;16.51;38.08;101258.44;4429975;32;19969;-50
2021/03/03 05:32:45;;;;;;;;;;;;;;;16.47;38.14;101256.47;4429888;32;19957;-52
2021/03/03 05:35:11;;;;;;;;;;;;;;;16.49;38.12;101259.19;4431815;32;19949;-50
2021/03/03 05:37:37;;;;;;;;;;;;;;;16.45;38.14;101258.16;4431597;32;19950;-49
2021/03/03 05:40:03;;;;;;;;;;;;;;;16.50;38.05;101256.63;4432306;32;19981;-50
2021/03/03 05:42:29;;;;;;;;;;;;;;;16.50;38.03;101251.38;4430698;32;19968;-55
2021/03/03 05:44:55;;;;;;;;;;;;;;;16.46;38.14;101245.91;4430687;32;19982;-53
2021/03/03 05:47:20;;;;;;;;;;;;;;;16.43;38.24;101254.56;4430331;32;20338;-49
2021/03/03 05:49:46;;;;;;;;;;;;;;;16.35;38.38;101246.34;4423261;32;19998;-54
2021/03/03 05:52:12;;;;;;;;;;;;;;;16.53;38.05;101256.75;4423160;32;19968;-53
2021/03/03 05:54:38;;;;;;;;;;;;;;;16.52;38.05;101260.22;4426516;32;20006;-54
2021/03/03 05:57:04;;;;;;;;;;;;;;;16.53;38.04;101255.84;4429721;32;19964;-51
2021/03/03 05:59:30;;;;;;;;;;;;;;;16.48;38.08;101246.87;4427135;32;19958;-49
2021/03/03 06:01:56;;;;;;;;;;;;;;;16.50;38.01;101248.75;4430210;32;19953;-48
2021/03/03 06:04:22;;;;;;;;;;;;;;;16.54;37.95;101252.38;4424693;32;19973;-51
2021/03/03 06:06:48;;;;;;;;;;;;;;;16.53;37.95;101251.50;4427473;32;19968;-54
2021/03/03 06:09:14;;;;;;;;;;;;;;;16.50;38.04;101256.63;4430977;32;19961;-50
2021/03/03 06:11:40;;;;;;;;;;;;;;;16.52;37.97;101249.69;4427372;32;20483;-50
2021/03/03 06:14:06;;;;;;;;;;;;;;;16.54;37.95;101249.75;4429759;32;19969;-50
2021/03/03 06:16:32;;;;;;;;;;;;;;;16.51;38.00;101258.44;4428184;32;19962;-48
2021/03/03 06:18:58;;;;;;;;;;;;;;;16.58;37.87;101262.22;4429197;32;20022;-52
2021/03/03 06:21:23;;;;;;;;;;;;;;;16.52;37.95;101254.97;4425956;32;20567;-52
2021/03/03 06:23:49;;;;;;;;;;;;;;;16.52;37.95;101257.59;4426590;32;20000;-49
2021/03/03 06:26:15;;;;;;;;;;;;;;;16.51;37.98;101268.94;4428705;32;20029;-52
2021/03/03 06:28:41;;;;;;;;;;;;;;;16.43;38.16;101267.72;4423354;32;20306;-49
2021/03/03 06:31:07;;;;;;;;;;;;;;;16.47;38.10;101260.84;4428253;32;19954;-50
2021/03/03 06:33:33;;;;;;;;;;;;;;;16.47;38.06;101267.00;4424329;32;19993;-50
2021/03/03 06:35:59;;;;;;;;;;;;;;;16.42;38.17;101274.72;4416749;32;20347;-49
2021/03/03 06:38:25;;;;;;;;;;;;;;;16.42;38.23;101279.06;4417078;32;19966;-53
2021/03/03 06:40:51;;;;;;;;;;;;;;;16.43;38.16;101276.50;4415830;32;19961;-52
2021/03/03 06:43:17;;;;;;;;;;;;;;;16.43;38.15;101281.75;4412702;32;21180;-50
2021/03/03 06:45:42;;;;;;;;;;;;;;;16.45;38.08;101273.91;4417875;32;19964;-53
2021/03/03 06:48:08;;;;;;;;;;;;;;;16.42;38.19;101279.06;4417384;32;20006;-53
2021/03/03 06:50:34;;;;;;;;;;;;;;;16.43;38.16;101283.47;4421133;32;19985;-50
2021/03/03 06:53:00;;;;;;;;;;;;;;;16.43;38.17;101283.47;4422635;32;20377;-49
2021/03/03 06:55:26;;;;;;;;;;;;;;;16.41;38.15;101280.78;4419546;32;20024;-48
2021/03/03 06:57:54;;;;;;;;;;;;;;;16.35;38.36;101282.25;4415739;32;20438;-52
2021/03/03 07:00:19;;;;;;;;;;;;;;;16.37;38.35;101280.59;4420768;32;20013;-49
2021/03/03 07:02:45;;;;;;;;;;;;;;;16.37;38.35;101283.22;4426040;32;19958;-50
2021/03/03 07:05:12;;;;;;;;;;;;;;;16.39;38.33;101286.81;4423542;32;20394;-48
2021/03/03 07:07:38;;;;;;;;;;;;;;;16.39;38.28;101286.81;4423539;32;20017;-49
2021/03/03 07:10:04;;;;;;;;;;;;;;;16.39;38.30;101289.44;4422654;32;20027;-53
2021/03/03 07:12:30;;;;;;;;;;;;;;;16.36;38.40;101284.03;4423631;32;19954;-49
2021/03/03 07:14:56;;;;;;;;;;;;;;;16.39;38.31;101281.56;4424050;32;20398;-53
2021/03/03 07:17:22;;;;;;;;;;;;;;;16.36;38.34;101284.03;4420937;32;19969;-49
2021/03/03 07:19:48;;;;;;;;;;;;;;;16.35;38.41;101280.53;4423889;32;19974;-54
2021/03/03 07:22:14;;;;;;;;;;;;;;;16.27;38.57;101277.56;4426071;32;19958;-51
2021/03/03 07:24:40;;;;;;;;;;;;;;;16.27;38.60;101277.56;4422215;32;20396;-50
2021/03/03 07:27:06;;;;;;;;;;;;;;;16.38;38.39;101271.88;4426556;32;19982;-50
2021/03/03 07:29:32;;;;;;;;;;;;;;;16.29;38.59;101262.75;4428847;32;20009;-52
2021/03/03 07:31:58;;;;;;;;;;;;;;;16.28;38.61;101275.81;4424375;32;19998;-50
2021/03/03 07:34:24;;;;;;;;;;;;;;;16.30;38.55;101269.81;4425290;32;19938;-50
2021/03/03 07:36:50;;;;;;;;;;;;;;;16.33;38.54;101273.41;4428136;32;19989;-54
2021/03/03 07:39:16;;;;;;;;;;;;;;;16.36;38.49;101278.78;4424186;32;19974;-52
2021/03/03 07:41:41;;;;;;;;;;;;;;;16.37;38.52;101284.09;4424380;32;19992;-52
2021/03/03 07:44:07;;;;;;;;;;;;;;;16.37;38.51;101293.75;4422407;32;19954;-52
2021/03/03 07:46:33;;;;;;;;;;;;;;;16.38;38.54;101291.16;4423977;32;19966;-49
2021/03/03 07:48:59;;;;;;;;;;;;;;;16.33;38.63;101283.91;4428738;32;20409;-52
2021/03/03 07:51:25;;;;;;;;;;;;;;;16.37;38.61;101291.13;4425931;32;20023;-55
2021/03/03 07:53:51;;;;;;;;;;;;;;;16.34;38.67;101296.22;4426694;32;19965;-50
2021/03/03 07:56:17;;;;;;;;;;;;;;;16.28;38.77;101291.59;4427962;32;19996;-52
2021/03/03 07:58:43;;;;;;;;;;;;;;;16.21;38.97;101286.91;4429382;32;20058;-53
2021/03/03 08:01:09;;;;;;;;;;;;;;;16.30;38.80;101285.56;4431364;32;19961;-51
2021/03/03 08:03:35;;;;;;;;;;;;;;;16.25;38.88;101287.13;4427932;32;20005;-50
2021/03/03 08:06:01;;;;;;;;;;;;;;;16.29;38.82;101273.28;4429327;32;20050;-53
2021/03/03 08:08:28;;;;;;;;;;;;;;;16.33;38.79;101278.66;4425054;32;19976;-50
2021/03/03 08:10:54;;;;;;;;;;;;;;;16.37;38.71;101272.72;4424583;32;19972;-55
2021/03/03 08:13:20;;;;;;;;;;;;;;;16.35;38.74;101279.62;4423227;32;20346;-51
2021/03/03 08:15:46;;;;;;;;;;;;;;;16.33;38.82;101273.41;4424384;32;19958;-53
2021/03/03 08:18:12;;;;;;;;;;;;;;;16.39;38.70;101271.94;4424137;32;20329;-52
2021/03/03 08:20:38;;;;;;;;;;;;;;;16.36;38.79;101271.81;4430632;32;20457;-52
2021/03/03 08:23:04;;;;;;;;;;;;;;;16.34;38.85;101275.19;4424751;32;19976;-51
2021/03/03 08:25:30;;;;;;;;;;;;;;;16.36;38.81;101284.94;4430504;32;19953;-54
2021/03/03 08:27:56;;;;;;;;;;;;;;;16.39;38.78;101284.19;4427192;32;19961;-52
2021/03/03 08:30:22;;;;;;;;;;;;;;;16.41;38.75;101287.78;4428056;32;20000;-52
2021/03/03 08:32:49;;;;;;;;;;;;;;;16.39;38.81;101284.19;4428735;32;19971;-53
2021/03/03 08:35:15;;;;;;;;;;;;;;;16.41;38.77;101293.91;4427642;32;19953;-53
2021/03/03 08:37:41;;;;;;;;;;;;;;;16.45;38.71;101292.31;4428547;32;19976;-52
2021/03/03 08:40:06;;;;;;;;;;;;;;;16.54;38.53;101290.09;4430943;32;19957;-52
2021/03/03 08:42:33;;;;;;;;;;;;;;;16.51;38.63;101281.19;4429552;32;19973;-51
2021/03/03 08:44:59;;;;;;;;;;;;;;;16.47;38.71;101293.28;4427107;32;19985;-54
2021/03/03 08:47:25;;;;;;;;;;;;;;;16.52;38.67;101289.12;4425176;32;20343;-54
2021/03/03 08:49:51;;;;;;;;;;;;;;;16.56;38.60;101283.16;4431319;32;20013;-47
2021/03/03 08:52:17;;;;;;;;;;;;;;;16.62;38.51;101282.53;4425236;32;20039;-48
2021/03/03 08:54:43;;;;;;;;;;;;;;;16.59;38.57;101282.41;4425119;32;20027;-52
2021/03/03 08:57:09;;;;;;;;;;;;;;;16.65;38.52;101284.41;4426691;32;19995;-52
2021/03/03 08:59:35;;;;;;;;;;;;;;;16.67;38.47;101286.28;4424365;32;19962;-51
2021/03/03 09:02:07;;;;;;;;;;;;;;;16.72;38.42;101289.97;4426492;32;19962;-51
2021/03/03 09:04:33;;;;;;;;;;;;;;;16.71;38.46;101284.66;4427412;32;19991;-52
2021/03/03 09:06:59;;;;;;;;;;;;;;;16.72;38.44;101276.84;4426037;32;20391;-52
2021/03/03 09:09:25;;;;;;;;;;;;;;;16.75;38.42;101270.81;4400872;32;19986;-49
2021/03/03 09:11:51;;;;;;;;;;;;;;;16.77;38.42;101277.03;4402746;32;19968;-52
2021/03/03 09:14:16;;;;;;;;;;;;;;;16.78;38.45;101273.56;4402559;32;19969;-51
2021/03/03 09:16:42;;;;;;;;;;;;;;;16.75;38.52;101268.19;4403846;32;20389;-52
2021/03/03 09:19:08;;;;;;;;;;;;;;;16.84;38.33;101260.66;4414032;32;19976;-54
2021/03/03 09:21:34;;;;;;;;;;;;;;;16.81;38.44;101273.69;4404614;32;19969;-55
2021/03/03 09:24:00;;;;;;;;;;;;;;;16.84;38.40;101263.28;4402571;32;20512;-50
2021/03/03 09:26:26;;;;;;;;;;;;;;;16.90;38.36;101256.50;4400126;32;19959;-48
2021/03/03 09:28:52;;;;;;;;;;;;;;;16.92;38.33;101254.81;4401765;32;19966;-50
2021/03/03 09:31:18;;;;;;;;;;;;;;;17.01;38.15;101265.75;4397578;32;19958;-49
2021/03/03 09:33:44;;;;;;;;;;;;;;;17.00;38.19;101253.44;4402271;32;20355;-51
2021/03/03 09:36:09;;;;;;;;;;;;;;;17.02;38.21;101248.22;4412673;32;20224;-50
2021/03/03 09:38:35;;;;;;;;;;;;;;;16.99;38.23;101248.97;4411495;32;19962;-54
2021/03/03 09:41:01;;;;;;;;;;;;;;;17.00;38.25;101250.81;4412293;32;19966;-56
2021/03/03 09:43:27;;;;;;;;;;;;;;;17.02;38.24;101245.59;4422632;32;20014;-53
2021/03/03 09:45:53;;;;;;;;;;;;;;;17.01;38.31;101249.97;4430143;32;20008;-49
2021/03/03 09:48:19;;;;;;;;;;;;;;;17.07;38.17;101257.22;4416974;32;19965;-50
2021/03/03 09:50:45;;;;;;;;;;;;;;;17.08;38.13;101257.25;4415213;32;19958;-51
2021/03/03 09:53:11;;;;;;;;;;;;;;;17.07;38.17;101244.94;4419870;32;21014;-51
2021/03/03 09:55:38;;;;;;;;;;;;;;;17.10;38.14;101250.34;4415926;32;20002;-53
2021/03/03 09:58:04;;;;;;;;;;;;;;;17.17;37.99;101253.19;4418907;32;20019;-49
2021/03/03 10:00:29;;;;;;;;;;;;;;;17.05;38.20;101245.72;4427173;32;19974;-52
2021/03/03 10:02:55;;;;;;;;;;;;;;;17.02;38.32;101246.50;4419925;32;20366;-46
2021/03/03 10:05:21;;;;;;;;;;;;;;;17.07;38.18;101250.19;4415871;32;19958;-52
2021/03/03 10:07:47;;;;;;;;;;;;;;;17.08;38.27;101245.84;4417492;32;20031;-52
2021/03/03 10:10:13;;;;;;;;;;;;;;;17.12;38.08;101246.03;4420242;32;19965;-50
2021/03/03 10:12:39;;;;;;;;;;;;;;;17.10;38.12;101241.53;4417039;32;20386;-51
2021/03/03 10:15:05;;;;;;;;;;;;;;;17.13;38.02;101232.03;4416289;32;19966;-52
2021/03/03 10:17:31;;;;;;;;;;;;;;;17.14;38.08;101230.28;4418848;32;20012;-50
2021/03/03 10:19:57;;;;;;;;;;;;;;;17.16;38.19;101227.72;4417215;32;20314;-54
2021/03/03 10:22:23;;;;;;;;;;;;;;;17.18;38.21;101236.56;4415257;32;20030;-52
2021/03/03 10:24:48;;;;;;;;;;;;;;;17.23;38.01;101235.03;4422369;32;19961;-53
2021/03/03 10:27:14;;;;;;;;;;;;;;;17.24;38.04;101236.81;4423203;32;19950;-54
2021/03/03 10:29:40;;;;;;;;;;;;;;;17.24;38.00;101236.81;4420685;32;20122;-50
2021/03/03 10:32:06;;;;;;;;;;;;;;;17.20;38.10;101235.81;4417026;32;20529;-49
2021/03/03 10:34:32;;;;;;;;;;;;;;;17.22;38.25;101230.56;4414224;32;19954;-52
2021/03/03 10:36:58;;;;;;;;;;;;;;;17.26;38.11;101230.75;4421751;32;19966;-50
2021/03/03 10:39:24;;;;;;;;;;;;;;;17.24;38.18;101227.19;4416876;32;19993;-46
2021/03/03 10:41:50;;;;;;;;;;;;;;;17.27;38.16;101231.66;4415340;32;20000;-49
2021/03/03 10:44:16;;;;;;;;;;;;;;;17.25;38.14;101228.97;4414545;32;19992;-49
2021/03/03 10:46:42;;;;;;;;;;;;;;;17.27;38.17;101239.56;4423044;32;19953;-48
2021/03/03 10:49:08;;;;;;;;;;;;;;;17.28;38.22;101230.84;4415335;32;19950;-52
2021/03/03 10:51:34;;;;;;;;;;;;;;;17.29;38.21;101240.53;4414265;32;20378;-52
2021/03/03 10:53:59;;;;;;;;;;;;;;;17.28;38.25;101234.38;4416164;32;19958;-53
2021/03/03 10:56:25;;;;;;;;;;;;;;;17.30;38.18;101229.16;4413519;32;19969;-52
2021/03/03 10:58:51;;;;;;;;;;;;;;;17.29;38.22;101230.00;4416624;32;19950;-53
2021/03/03 11:01:18;;;;;;;;;;;;;;;17.30;38.21;101225.62;4415834;32;20029;-53
2021/03/03 11:03:44;;;;;;;;;;;;;;;17.31;38.20;101228.31;4414542;32;19961;-51
2021/03/03 11:06:10;;;;;;;;;;;;;;;17.33;38.21;101225.75;4414385;32;20108;-52
2021/03/03 11:08:36;;;;;;;;;;;;;;;17.35;38.15;101213.53;4418781;32;19946;-51
2021/03/03 11:11:02;;;;;;;;;;;;;;;17.34;38.18;101212.63;4420691;32;19989;-52
2021/03/03 11:13:28;;;;;;;;;;;;;;;17.36;38.20;101216.25;4416952;32;20009;-50
2021/03/03 11:15:54;;;;;;;;;;;;;;;17.38;38.18;101217.19;4417441;32;19950;-49
2021/03/03 11:18:20;;;;;;;;;;;;;;;17.39;38.20;101216.34;4417205;32;19985;-47
2021/03/03 11:20:46;;;;;;;;;;;;;;;17.39;38.16;101216.34;4418417;32;19965;-50
2021/03/03 11:23:12;;;;;;;;;;;;;;;17.41;38.24;101211.16;4416820;32;20042;-50
2021/03/03 11:25:38;;;;;;;;;;;;;;;17.40;38.19;101207.59;4424556;32;20339;-49
2021/03/03 11:28:04;;;;;;;;;;;;;;;17.41;38.19;101203.25;4423615;32;19964;-52
2021/03/03 11:30:30;;;;;;;;;;;;;;;17.44;38.22;101198.09;4427224;32;20395;-50
2021/03/03 11:32:56;;;;;;;;;;;;;;;17.42;38.14;101200.66;4426125;32;19947;-53
2021/03/03 11:35:22;;;;;;;;;;;;;;;17.46;38.14;101195.50;4423397;32;20305;-51
2021/03/03 11:37:48;;;;;;;;;;;;;;;17.48;38.26;101199.09;4423383;32;19990;-52
2021/03/03 11:40:14;;;;;;;;;;;;;;;17.47;38.29;101189.37;4421817;32;20350;-51
2021/03/03 11:42:40;;;;;;;;;;;;;;;17.49;38.16;101190.38;4422813;32;19962;-51
2021/03/03 11:45:06;;;;;;;;;;;;;;;17.52;38.15;101185.22;4425063;32;19993;-53
2021/03/03 11:47:32;;;;;;;;;;;;;;;17.53;38.10;101180.00;4428553;32;20262;-49
2021/03/03 11:49:58;;;;;;;;;;;;;;;17.53;38.07;101172.09;4424559;32;20001;-51
2021/03/03 11:52:24;;;;;;;;;;;;;;;17.56;38.08;101177.47;4423113;32;19961;-54
2021/03/03 11:54:49;;;;;;;;;;;;;;;17.58;38.02;101164.34;4423220;32;19958;-54
2021/03/03 11:57:15;;;;;;;;;;;;;;;17.57;38.06;101167.81;4425616;32;19957;-47
2021/03/03 11:59:41;;;;;;;;;;;;;;;17.56;38.07;101160.75;4424310;32;19962;-50
2021/03/03 12:02:07;;;;;;;;;;;;;;;17.58;38.07;101158.19;4423051;32;19964;-51
2021/03/03 12:04:33;;;;;;;;;;;;;;;17.59;38.06;101155.59;4425986;32;20383;-53
2021/03/03 12:06:59;;;;;;;;;;;;;;;17.60;38.07;101154.78;4429675;32;19993;-49
2021/03/03 12:09:25;;;;;;;;;;;;;;;17.61;38.03;101148.69;4423134;32;19949;-50
2021/03/03 12:11:51;;;;;;;;;;;;;;;17.63;38.04;101147.00;4425927;32;19950;-49
2021/03/03 12:14:17;;;;;;;;;;;;;;;17.65;38.00;101141.75;4423707;32;19972;-49
2021/03/03 12:16:42;;;;;;;;;;;;;;;17.66;38.04;101141.81;4424959;32;19950;-52
2021/03/03 12:19:08;;;;;;;;;;;;;;;17.69;38.05;101138.41;4422572;32;19986;-50
2021/03/03 12:21:34;;;;;;;;;;;;;;;17.70;38.04;101127.91;4423335;32;19967;-49
2021/03/03 12:24:00;;;;;;;;;;;;;;;17.69;38.02;101119.97;4411734;32;19989;-50
2021/03/03 12:26:26;;;;;;;;;;;;;;;17.70;38.04;101117.38;4426966;32;20467;-49
2021/03/03 12:28:52;;;;;;;;;;;;;;;17.72;38.03;101108.63;4425539;32;20001;-53